Biola, California
Current Conditions -  °F | °C
As of 10:53 AM on Tuesday 27 Jan 2015 (Local Time) from KMAE Reporting Station
Broken Clouds Broken Clouds  
Wind Chill: 16°   Ceiling: 8000
Heat Index: 16°   Visibility: 10mi
Dew Point: 11°   Wind: 3mph
Humidity: 75%   Direction: 180°S
Pressure: 30.25"   Gusts: NA
Location:  36.8°N, 120.02°W
Report Text: KMAE 271853Z AUTO 18003KT 10SM BKN080 16/11 A3025 RMK AO2 SLP241 T01560111
Loading
Personal Weather Stations






























Interactive Weather Map New forecast layout! Learn more

10-Day Weather Forecast

Advertisements
Track Severe Weather on mobile